createdAt,value
2018-08-28T00:01:19.987Z,101277.47
2018-08-28T00:03:48.075Z,101281.56
2018-08-28T00:06:16.137Z,101283.48
2018-08-28T00:08:44.187Z,101284.43
2018-08-28T00:11:12.299Z,101283.48
2018-08-28T00:13:40.373Z,101275.57
2018-08-28T00:16:08.443Z,101279.63
2018-08-28T00:18:36.520Z,101281.19
2018-08-28T00:21:04.840Z,101280.34
2018-08-28T00:23:32.904Z,101280.69
2018-08-28T00:26:01.115Z,101283.59
2018-08-28T00:28:29.171Z,101289.47
2018-08-28T00:30:57.245Z,101287.78
2018-08-28T00:33:25.454Z,101286.56
2018-08-28T00:35:53.530Z,101289.81
2018-08-28T00:38:21.583Z,101284.06
2018-08-28T00:40:49.683Z,101283.22
2018-08-28T00:43:17.755Z,101287.88
2018-08-28T00:45:45.982Z,101289.00
2018-08-28T00:48:14.029Z,101294.75
2018-08-28T00:50:42.072Z,101291.13
2018-08-28T00:53:10.279Z,101300.12
2018-08-28T00:55:38.359Z,101299.86
2018-08-28T00:58:06.456Z,101298.81
2018-08-28T01:00:34.659Z,101302.77
2018-08-28T01:03:02.723Z,101303.10
2018-08-28T01:05:30.778Z,101305.98
2018-08-28T01:07:58.846Z,101310.68
2018-08-28T01:10:26.899Z,101310.58
2018-08-28T01:12:54.958Z,101313.08
2018-08-28T01:15:23.014Z,101310.33
2018-08-28T01:17:51.074Z,101306.84
2018-08-28T01:20:19.120Z,101315.98
2018-08-28T01:22:47.168Z,101313.55
2018-08-28T01:25:15.303Z,101318.83
2018-08-28T01:27:43.355Z,101315.27
2018-08-28T01:30:11.416Z,101314.16
2018-08-28T01:32:39.666Z,101311.52
2018-08-28T01:35:07.739Z,101309.73
2018-08-28T01:37:35.818Z,101309.62
2018-08-28T01:40:04.962Z,101304.34
2018-08-28T01:42:33.018Z,101312.26
2018-08-28T01:45:01.082Z,101305.33
2018-08-28T01:47:29.287Z,101314.19
2018-08-28T01:49:57.347Z,101309.38
2018-08-28T01:52:25.411Z,101309.98
2018-08-28T01:54:53.462Z,101306.64
2018-08-28T01:57:21.533Z,101309.38
2018-08-28T01:59:49.596Z,101303.30
2018-08-28T02:02:17.666Z,101308.91
2018-08-28T02:04:45.731Z,101304.95
2018-08-28T02:07:13.794Z,101306.03
2018-08-28T02:09:41.849Z,101306.91
2018-08-28T02:12:09.910Z,101305.11
2018-08-28T02:14:38.012Z,101313.34
2018-08-28T02:17:06.138Z,101309.38
2018-08-28T02:19:34.238Z,101308.06
2018-08-28T02:22:02.287Z,101311.07
2018-08-28T02:24:30.343Z,101307.96
2018-08-28T02:26:58.454Z,101304.01
2018-08-28T02:29:26.526Z,101307.96
2018-08-28T02:31:54.619Z,101313.71
2018-08-28T02:34:22.706Z,101320.06
2018-08-28T02:36:50.766Z,101313.34
2018-08-28T02:39:18.817Z,101312.13
2018-08-28T02:41:46.883Z,101314.16
2018-08-28T02:44:14.942Z,101311.52
2018-08-28T02:46:43.179Z,101312.73
2018-08-28T02:49:11.228Z,101312.15
2018-08-28T02:51:39.322Z,101310.72
2018-08-28T02:54:07.597Z,101314.44
2018-08-28T02:56:35.651Z,101310.86
2018-08-28T02:59:03.854Z,101318.77
2018-08-28T03:01:31.913Z,101322.12
2018-08-28T03:03:59.982Z,101321.75
2018-08-28T03:06:28.046Z,101319.61
2018-08-28T03:08:56.150Z,101327.39
2018-08-28T03:11:24.249Z,101328.95
2018-08-28T03:13:52.278Z,101326.19
2018-08-28T03:16:20.395Z,101329.30
2018-08-28T03:18:48.458Z,101325.00
2018-08-28T03:21:16.674Z,101331.08
2018-08-28T03:23:44.766Z,101327.39
2018-08-28T03:26:12.831Z,101329.77
2018-08-28T03:28:40.913Z,101333.61
2018-08-28T03:31:08.982Z,101328.34
2018-08-28T03:33:37.047Z,101337.56
2018-08-28T03:36:05.111Z,101330.50
2018-08-28T03:38:33.392Z,101335.30
2018-08-28T03:41:01.490Z,101330.27
2018-08-28T03:43:29.543Z,101332.40
2018-08-28T03:45:57.658Z,101336.59
2018-08-28T03:48:25.855Z,101337.08
2018-08-28T03:50:53.983Z,101334.09
2018-08-28T03:53:22.203Z,101342.61
2018-08-28T03:55:50.332Z,101347.28
2018-08-28T03:58:18.586Z,101342.48
2018-08-28T04:00:46.660Z,101342.00
2018-08-28T04:03:14.706Z,101350.15
2018-08-28T04:05:42.858Z,101350.05
2018-08-28T04:08:10.914Z,101350.86
2018-08-28T04:10:39.018Z,101354.11
2018-08-28T04:13:07.146Z,101358.55
2018-08-28T04:15:35.231Z,101357.70
2018-08-28T04:18:03.283Z,101353.61
2018-08-28T04:20:31.399Z,101358.28
2018-08-28T04:22:59.445Z,101362.23
2018-08-28T04:25:27.537Z,101359.73
2018-08-28T04:27:55.763Z,101362.50
2018-08-28T04:30:23.870Z,101365.61
2018-08-28T04:32:52.031Z,101368.25
2018-08-28T04:35:20.360Z,101363.44
2018-08-28T04:37:48.442Z,101367.41
2018-08-28T04:40:16.689Z,101363.23
2018-08-28T04:42:44.755Z,101372.67
2018-08-28T04:45:12.925Z,101377.14
2018-08-28T04:47:40.994Z,101369.22
2018-08-28T04:50:09.057Z,101375.92
2018-08-28T04:52:37.987Z,101378.80
2018-08-28T04:55:06.533Z,101381.30
2018-08-28T04:57:34.627Z,101384.43
2018-08-28T05:00:02.667Z,101381.45
2018-08-28T05:02:35.770Z,101387.20
2018-08-28T05:05:05.572Z,101394.64
2018-08-28T05:07:33.758Z,101393.56
2018-08-28T05:10:01.871Z,101395.35
2018-08-28T05:12:30.023Z,101397.14
2018-08-28T05:14:58.859Z,101404.33
2018-08-28T05:17:26.922Z,101402.91
2018-08-28T05:19:55.227Z,101408.78
2018-08-28T05:22:23.999Z,101410.58
2018-08-28T05:24:52.546Z,101413.69
2018-08-28T05:27:21.934Z,101413.69
2018-08-28T05:29:50.205Z,101412.95
2018-08-28T05:32:18.255Z,101418.47
2018-08-28T05:34:46.938Z,101420.98
2018-08-28T05:37:15.088Z,101419.79
2018-08-28T05:39:43.142Z,101420.98
2018-08-28T05:42:11.231Z,101417.39
2018-08-28T05:44:39.342Z,101425.77
2018-08-28T05:47:07.429Z,101429.36
2018-08-28T05:49:35.637Z,101434.51
2018-08-28T05:52:04.779Z,101431.16
2018-08-28T05:54:32.851Z,101431.75
2018-08-28T05:57:01.041Z,101439.20
2018-08-28T05:59:29.114Z,101431.05
2018-08-28T06:01:57.228Z,101440.36
2018-08-28T06:04:25.340Z,101440.36
2018-08-28T06:06:53.595Z,101440.98
2018-08-28T06:09:21.684Z,101446.58
2018-08-28T06:11:49.802Z,101444.05
2018-08-28T06:14:17.894Z,101450.28
2018-08-28T06:16:46.291Z,101448.84
2018-08-28T06:19:14.393Z,101447.65
2018-08-28T06:21:42.476Z,101450.05
2018-08-28T06:24:11.114Z,101448.13
2018-08-28T06:26:39.275Z,101454.13
2018-08-28T06:29:07.588Z,101458.19
2018-08-28T06:31:35.735Z,101456.36
2018-08-28T06:34:03.846Z,101459.62
2018-08-28T06:36:31.907Z,101461.89
2018-08-28T06:39:00.458Z,101464.64
2018-08-28T06:41:28.563Z,101472.45
2018-08-28T06:43:56.707Z,101465.48
2018-08-28T06:46:24.715Z,101470.77
2018-08-28T06:48:52.854Z,101472.91
2018-08-28T06:51:21.161Z,101476.97
2018-08-28T06:53:49.588Z,101476.84
2018-08-28T06:56:17.911Z,101479.61
2018-08-28T06:58:46.008Z,101480.33
2018-08-28T07:01:14.328Z,101482.73
2018-08-28T07:03:42.513Z,101482.23
2018-08-28T07:06:10.814Z,101487.14
2018-08-28T07:08:38.935Z,101486.53
2018-08-28T07:11:07.343Z,101481.72
2018-08-28T07:13:35.437Z,101494.08
2018-08-28T07:16:03.715Z,101496.72
2018-08-28T07:18:32.102Z,101491.08
2018-08-28T07:21:00.195Z,101492.70
2018-08-28T07:23:28.313Z,101499.41
2018-08-28T07:25:56.508Z,101499.91
2018-08-28T07:28:24.515Z,101500.02
2018-08-28T07:30:52.776Z,101500.35
2018-08-28T07:33:21.195Z,101500.93
2018-08-28T07:35:49.282Z,101503.20
2018-08-28T07:38:17.850Z,101505.20
2018-08-28T07:40:45.967Z,101507.94
2018-08-28T07:43:14.119Z,101508.84
2018-08-28T07:45:42.233Z,101513.47
2018-08-28T07:48:10.474Z,101504.15
2018-08-28T07:50:38.623Z,101508.45
2018-08-28T07:53:06.711Z,101510.95
2018-08-28T07:55:34.995Z,101511.76
2018-08-28T07:58:03.127Z,101511.95
2018-08-28T08:00:31.241Z,101517.84
2018-08-28T08:02:59.790Z,101514.77
2018-08-28T08:05:27.886Z,101510.09
2018-08-28T08:07:55.990Z,101511.70
2018-08-28T08:10:24.127Z,101514.52
2018-08-28T08:12:52.204Z,101503.30
2018-08-28T08:15:20.315Z,101505.36
2018-08-28T08:17:48.459Z,101507.70
2018-08-28T08:20:16.547Z,101510.36
2018-08-28T08:22:44.655Z,101514.05
2018-08-28T08:25:12.762Z,101516.08
2018-08-28T08:27:41.176Z,101524.98
2018-08-28T08:30:09.355Z,101519.00
2018-08-28T08:32:37.444Z,101524.73
2018-08-28T08:35:06.531Z,101522.10
2018-08-28T08:37:34.932Z,101520.16
2018-08-28T08:40:03.031Z,101524.66
2018-08-28T08:42:31.123Z,101524.50
2018-08-28T08:44:59.520Z,101526.05
2018-08-28T08:47:27.598Z,101524.98
2018-08-28T08:49:55.689Z,101531.91
2018-08-28T08:52:23.835Z,101533.78
2018-08-28T08:54:51.964Z,101533.45
2018-08-28T08:57:20.041Z,101538.75
2018-08-28T08:59:48.126Z,101539.45
2018-08-28T09:02:16.271Z,101536.58
2018-08-28T09:04:44.359Z,101540.62
2018-08-28T09:07:12.745Z,101544.81
2018-08-28T09:09:40.843Z,101543.64
2018-08-28T09:12:15.628Z,101535.25
2018-08-28T09:14:43.720Z,101541.55
2018-08-28T09:17:11.818Z,101538.60
2018-08-28T09:19:40.045Z,101542.65
2018-08-28T09:22:08.170Z,101542.80
2018-08-28T09:24:36.336Z,101543.08
2018-08-28T09:27:04.787Z,101541.39
2018-08-28T09:29:33.059Z,101540.44
2018-08-28T09:32:01.196Z,101533.34
2018-08-28T09:34:29.511Z,101530.77
2018-08-28T09:36:57.592Z,101528.73
2018-08-28T09:39:25.695Z,101529.75
2018-08-28T09:41:53.807Z,101530.45
2018-08-28T09:44:22.667Z,101531.58
2018-08-28T09:46:50.775Z,101534.77
2018-08-28T09:49:18.864Z,101539.11
2018-08-28T09:51:46.976Z,101539.81
2018-08-28T09:54:15.068Z,101542.59
2018-08-28T09:56:43.220Z,101542.22
2018-08-28T09:59:11.444Z,101543.06
2018-08-28T10:01:45.027Z,101538.24
2018-08-28T10:04:14.268Z,101543.97
2018-08-28T10:06:42.435Z,101543.95
2018-08-28T10:09:13.114Z,101545.81
2018-08-28T10:11:41.902Z,101547.20
2018-08-28T10:14:10.755Z,101544.39
2018-08-28T10:16:39.039Z,101543.90
2018-08-28T10:19:07.650Z,101546.04
2018-08-28T10:21:36.131Z,101544.44
2018-08-28T10:24:04.444Z,101542.32
2018-08-28T10:26:33.099Z,101545.72
2018-08-28T10:29:01.387Z,101547.79
2018-08-28T10:31:29.564Z,101548.48
2018-08-28T10:33:57.822Z,101540.56
2018-08-28T10:36:26.087Z,101541.51
2018-08-28T10:38:54.183Z,101532.16
2018-08-28T10:41:22.746Z,101532.62
2018-08-28T10:43:50.856Z,101532.70
2018-08-28T10:46:19.067Z,101529.84
2018-08-28T10:48:47.578Z,101530.94
2018-08-28T10:51:16.584Z,101532.78
2018-08-28T10:53:45.243Z,101530.20
2018-08-28T10:56:13.340Z,101533.80
2018-08-28T10:58:41.469Z,101534.06
2018-08-28T11:01:09.772Z,101530.14
2018-08-28T11:03:37.946Z,101522.48
2018-08-28T11:06:06.026Z,101527.70
2018-08-28T11:08:34.139Z,101529.45
2018-08-28T11:11:02.208Z,101535.30
2018-08-28T11:13:30.329Z,101533.52
2018-08-28T11:15:58.417Z,101532.37
2018-08-28T11:18:26.530Z,101531.72
2018-08-28T11:20:54.753Z,101533.27
2018-08-28T11:23:23.066Z,101538.08
2018-08-28T11:25:51.406Z,101538.66
2018-08-28T11:28:19.531Z,101532.98
2018-08-28T11:30:47.635Z,101531.75
2018-08-28T11:33:16.031Z,101530.20
2018-08-28T11:35:44.210Z,101529.63
2018-08-28T11:38:12.258Z,101530.92
2018-08-28T11:40:40.747Z,101530.11
2018-08-28T11:43:08.844Z,101529.55
2018-08-28T11:45:37.288Z,101523.41
2018-08-28T11:48:06.007Z,101515.84
2018-08-28T11:50:34.119Z,101518.50
2018-08-28T11:53:02.384Z,101509.51
2018-08-28T11:55:31.047Z,101510.05
2018-08-28T11:57:59.103Z,101505.75
2018-08-28T12:00:27.211Z,101499.84
2018-08-28T12:02:55.300Z,101498.30
2018-08-28T12:05:23.559Z,101497.74
2018-08-28T12:07:52.626Z,101492.27
2018-08-28T12:10:20.778Z,101491.11
2018-08-28T12:12:48.851Z,101493.75
2018-08-28T12:15:16.922Z,101484.23
2018-08-28T12:17:45.155Z,101488.11
2018-08-28T12:20:13.241Z,101485.80
2018-08-28T12:22:41.324Z,101481.80
2018-08-28T12:25:10.134Z,101481.47
2018-08-28T12:27:38.408Z,101478.33
2018-08-28T12:30:07.328Z,101479.81
2018-08-28T12:32:35.396Z,101481.32
2018-08-28T12:35:03.471Z,101474.54
2018-08-28T12:37:31.560Z,101477.05
2018-08-28T12:39:59.782Z,101472.38
2018-08-28T12:42:27.859Z,101476.02
2018-08-28T12:44:56.166Z,101476.87
2018-08-28T12:47:24.530Z,101472.48
2018-08-28T12:49:52.615Z,101477.14
2018-08-28T12:52:20.962Z,101468.84
2018-08-28T12:54:49.108Z,101474.02
2018-08-28T12:57:17.373Z,101473.03
2018-08-28T12:59:45.630Z,101470.85
2018-08-28T13:02:14.060Z,101468.86
2018-08-28T13:04:42.050Z,101472.37
2018-08-28T13:07:10.355Z,101466.52
2018-08-28T13:09:38.373Z,101472.22
2018-08-28T13:12:06.477Z,101469.20
2018-08-28T13:14:34.861Z,101462.71
2018-08-28T13:17:02.910Z,101465.20
2018-08-28T13:19:31.008Z,101461.72
2018-08-28T13:21:59.109Z,101462.88
2018-08-28T13:24:27.195Z,101459.05
2018-08-28T13:26:55.332Z,101460.87
2018-08-28T13:29:23.602Z,101464.88
2018-08-28T13:31:51.702Z,101461.55
2018-08-28T13:34:19.787Z,101462.71
2018-08-28T13:36:47.891Z,101453.38
2018-08-28T13:39:16.198Z,101450.70
2018-08-28T13:41:44.628Z,101447.72
2018-08-28T13:44:13.623Z,101444.88
2018-08-28T13:46:41.708Z,101450.53
2018-08-28T13:49:09.810Z,101445.38
2018-08-28T13:51:38.353Z,101442.88
2018-08-28T13:54:06.479Z,101439.06
2018-08-28T13:56:34.559Z,101439.38
2018-08-28T13:59:03.066Z,101440.53
2018-08-28T14:01:31.164Z,101440.87
2018-08-28T14:03:59.236Z,101442.70
2018-08-28T14:06:27.416Z,101433.36
2018-08-28T14:08:55.496Z,101436.20
2018-08-28T14:11:23.637Z,101434.52
2018-08-28T14:13:51.802Z,101436.53
2018-08-28T14:16:19.803Z,101432.03
2018-08-28T14:18:48.386Z,101425.05
2018-08-28T14:21:16.449Z,101432.53
2018-08-28T14:23:44.571Z,101431.55
2018-08-28T14:26:12.688Z,101431.55
2018-08-28T14:28:40.836Z,101426.21
2018-08-28T14:31:09.072Z,101425.36
2018-08-28T14:33:37.151Z,101431.54
2018-08-28T14:36:05.508Z,101425.20
2018-08-28T14:38:33.887Z,101425.20
2018-08-28T14:41:01.997Z,101418.22
2018-08-28T14:43:30.245Z,101422.05
2018-08-28T14:45:58.328Z,101419.20
2018-08-28T14:48:26.425Z,101412.39
2018-08-28T14:50:54.517Z,101412.87
2018-08-28T14:53:23.557Z,101419.72
2018-08-28T14:55:51.644Z,101416.70
2018-08-28T14:58:19.724Z,101418.20
2018-08-28T15:00:47.827Z,101412.86
2018-08-28T15:03:15.934Z,101411.53
2018-08-28T15:05:44.082Z,101409.04
2018-08-28T15:08:12.218Z,101406.19
2018-08-28T15:10:40.345Z,101406.02
2018-08-28T15:13:08.441Z,101402.17
2018-08-28T15:15:36.752Z,101401.49
2018-08-28T15:18:04.852Z,101404.34
2018-08-28T15:20:32.967Z,101402.18
2018-08-28T15:23:01.232Z,101396.19
2018-08-28T15:25:29.288Z,101390.48
2018-08-28T15:27:57.376Z,101393.00
2018-08-28T15:30:25.482Z,101392.33
2018-08-28T15:32:53.657Z,101386.98
2018-08-28T15:35:21.743Z,101380.45
2018-08-28T15:37:49.860Z,101385.46
2018-08-28T15:40:17.994Z,101380.78
2018-08-28T15:42:46.172Z,101380.80
2018-08-28T15:45:14.262Z,101384.14
2018-08-28T15:47:42.343Z,101383.13
2018-08-28T15:50:10.437Z,101385.14
2018-08-28T15:52:38.532Z,101380.84
2018-08-28T15:55:06.645Z,101380.50
2018-08-28T15:57:34.756Z,101378.52
2018-08-28T16:00:02.879Z,101374.86
2018-08-28T16:02:30.961Z,101378.38
2018-08-28T16:04:59.122Z,101367.70
2018-08-28T16:07:27.208Z,101366.03
2018-08-28T16:09:55.291Z,101365.19
2018-08-28T16:12:23.750Z,101367.05
2018-08-28T16:14:52.055Z,101365.87
2018-08-28T16:17:20.146Z,101365.03
2018-08-28T16:19:48.224Z,101363.17
2018-08-28T16:22:20.429Z,101365.53
2018-08-28T16:24:48.673Z,101367.53
2018-08-28T16:27:16.794Z,101365.53
2018-08-28T16:29:45.083Z,101357.84
2018-08-28T16:32:13.134Z,101362.87
2018-08-28T16:34:41.446Z,101362.69
2018-08-28T16:37:09.998Z,101355.19
2018-08-28T16:39:38.079Z,101359.19
2018-08-28T16:42:06.088Z,101353.05
2018-08-28T16:44:34.680Z,101352.88
2018-08-28T16:47:02.810Z,101353.89
2018-08-28T16:49:31.153Z,101342.38
2018-08-28T16:52:05.488Z,101341.36
2018-08-28T16:54:33.767Z,101338.87
2018-08-28T16:57:01.877Z,101330.88
2018-08-28T16:59:29.954Z,101321.23
2018-08-28T17:01:58.052Z,101324.34
2018-08-28T17:04:26.099Z,101322.83
2018-08-28T17:06:54.198Z,101319.49
2018-08-28T17:09:22.425Z,101311.18
2018-08-28T17:11:50.496Z,101311.31
2018-08-28T17:14:18.588Z,101311.16
2018-08-28T17:16:46.806Z,101303.81
2018-08-28T17:19:14.956Z,101300.12
2018-08-28T17:21:42.979Z,101294.13
2018-08-28T17:24:11.234Z,101293.92
2018-08-28T17:26:39.309Z,101295.58
2018-08-28T17:29:07.394Z,101295.73
2018-08-28T17:34:02.604Z,101292.48
2018-08-28T17:36:30.793Z,101289.97
2018-08-28T17:38:58.882Z,101287.14
2018-08-28T17:41:26.943Z,101290.06
2018-08-28T17:43:55.167Z,101288.20
2018-08-28T17:46:23.252Z,101285.52
2018-08-28T17:48:51.379Z,101290.98
2018-08-28T17:51:19.420Z,101293.42
2018-08-28T17:53:47.499Z,101287.05
2018-08-28T17:56:15.579Z,101289.85
2018-08-28T17:58:43.810Z,101293.59
2018-08-28T18:01:11.984Z,101290.39
2018-08-28T18:03:40.039Z,101288.84
2018-08-28T18:06:08.129Z,101293.12
2018-08-28T18:08:36.191Z,101285.57
2018-08-28T18:11:04.664Z,101291.50
2018-08-28T18:13:32.753Z,101291.27
2018-08-28T18:16:00.863Z,101300.84
2018-08-28T18:18:28.934Z,101292.81
2018-08-28T18:20:57.044Z,101293.73
2018-08-28T18:23:25.119Z,101293.75
2018-08-28T18:25:53.205Z,101297.16
2018-08-28T18:28:21.293Z,101300.22
2018-08-28T18:30:49.371Z,101298.67
2018-08-28T18:33:17.450Z,101293.61
2018-08-28T18:35:45.555Z,101293.36
2018-08-28T18:38:14.134Z,101295.11
2018-08-28T18:40:42.218Z,101287.05
2018-08-28T18:43:10.347Z,101289.61
2018-08-28T18:45:38.429Z,101285.38
2018-08-28T18:48:06.499Z,101283.79
2018-08-28T18:50:34.615Z,101288.63
2018-08-28T18:53:02.686Z,101282.70
2018-08-28T18:55:30.994Z,101283.44
2018-08-28T18:57:59.077Z,101286.33
2018-08-28T19:00:27.154Z,101281.88
2018-08-28T19:02:55.332Z,101284.29
2018-08-28T19:05:23.389Z,101284.02
2018-08-28T19:07:51.506Z,101276.64
2018-08-28T19:10:19.533Z,101282.51
2018-08-28T19:12:47.780Z,101279.11
2018-08-28T19:15:15.874Z,101278.67
2018-08-28T19:17:43.966Z,101279.60
2018-08-28T19:20:12.051Z,101277.48
2018-08-28T19:22:40.171Z,101281.03
2018-08-28T19:25:08.288Z,101274.97
2018-08-28T19:27:36.374Z,101275.05
2018-08-28T19:30:04.676Z,101279.58
2018-08-28T19:32:32.911Z,101278.48
2018-08-28T19:35:01.056Z,101273.59
2018-08-28T19:37:29.231Z,101270.51
2018-08-28T19:39:57.348Z,101264.81
2018-08-28T19:42:25.436Z,101257.77
2018-08-28T19:44:53.509Z,101262.64
2018-08-28T19:47:21.707Z,101266.88
2018-08-28T19:49:49.790Z,101263.34
2018-08-28T19:52:17.853Z,101258.78
2018-08-28T19:54:45.966Z,101263.19
2018-08-28T19:57:14.210Z,101257.94
2018-08-28T19:59:42.325Z,101256.34
2018-08-28T20:02:10.475Z,101261.73
2018-08-28T20:04:38.733Z,101261.52
2018-08-28T20:07:06.844Z,101257.62
2018-08-28T20:09:34.920Z,101254.13
2018-08-28T20:12:03.159Z,101251.55
2018-08-28T20:14:31.284Z,101246.04
2018-08-28T20:16:59.382Z,101250.26
2018-08-28T20:19:27.476Z,101239.97
2018-08-28T20:21:55.559Z,101244.33
2018-08-28T20:24:23.624Z,101240.28
2018-08-28T20:26:51.905Z,101238.88
2018-08-28T20:29:19.958Z,101238.80
2018-08-28T20:31:48.047Z,101237.39
2018-08-28T20:34:16.134Z,101233.70
2018-08-28T20:36:44.441Z,101234.10
2018-08-28T20:39:12.524Z,101232.69
2018-08-28T20:41:40.607Z,101232.75
2018-08-28T20:44:08.686Z,101238.42
2018-08-28T20:46:36.748Z,101230.88
2018-08-28T20:49:04.899Z,101234.98
2018-08-28T20:51:33.031Z,101229.95
2018-08-28T20:54:01.126Z,101231.07
2018-08-28T20:56:29.193Z,101227.84
2018-08-28T20:58:57.318Z,101231.09
2018-08-28T21:01:25.403Z,101228.02
2018-08-28T21:03:53.488Z,101221.44
2018-08-28T21:06:21.729Z,101222.30
2018-08-28T21:08:49.819Z,101221.36
2018-08-28T21:11:17.894Z,101219.47
2018-08-28T21:13:45.981Z,101218.19
2018-08-28T21:16:14.058Z,101210.18
2018-08-28T21:18:42.130Z,101206.97
2018-08-28T21:21:10.231Z,101208.20
2018-08-28T21:23:38.325Z,101203.16
2018-08-28T21:26:06.605Z,101203.44
2018-08-28T21:28:34.802Z,101204.05
2018-08-28T21:31:02.881Z,101196.88
2018-08-28T21:33:31.011Z,101182.37
2018-08-28T21:35:59.234Z,101195.70
2018-08-28T21:38:27.334Z,101194.28
2018-08-28T21:40:55.411Z,101186.14
2018-08-28T21:43:23.539Z,101184.48
2018-08-28T21:45:51.606Z,101182.59
2018-08-28T21:48:19.779Z,101184.28
2018-08-28T21:50:47.766Z,101186.08
2018-08-28T21:53:15.851Z,101182.39
2018-08-28T21:55:44.094Z,101184.79
2018-08-28T21:58:12.175Z,101177.12
2018-08-28T22:00:40.244Z,101182.29
2018-08-28T22:03:08.495Z,101180.88
2018-08-28T22:05:36.562Z,101181.14
2018-08-28T22:08:05.551Z,101183.67
2018-08-28T22:10:33.873Z,101176.84
2018-08-28T22:13:01.990Z,101176.09
2018-08-28T22:15:30.090Z,101177.18
2018-08-28T22:17:58.306Z,101173.49
2018-08-28T22:20:26.385Z,101170.14
2018-08-28T22:22:54.450Z,101164.64
2018-08-28T22:25:22.665Z,101162.61
2018-08-28T22:27:50.740Z,101163.34
2018-08-28T22:30:18.810Z,101163.58
2018-08-28T22:32:47.043Z,101163.47
2018-08-28T22:35:15.111Z,101163.02
2018-08-28T22:37:43.188Z,101156.80
2018-08-28T22:40:12.186Z,101159.09
2018-08-28T22:42:40.254Z,101150.95
2018-08-28T22:45:08.320Z,101151.69
2018-08-28T22:47:36.390Z,101150.84
2018-08-28T22:50:05.888Z,101143.68
2018-08-28T22:52:33.956Z,101140.80
2018-08-28T22:55:02.135Z,101135.30
2018-08-28T22:57:30.206Z,101133.73
2018-08-28T22:59:58.278Z,101133.29
2018-08-28T23:02:26.341Z,101134.36
2018-08-28T23:04:54.446Z,101131.02
2018-08-28T23:07:22.571Z,101128.27
2018-08-28T23:09:50.662Z,101123.02
2018-08-28T23:12:18.755Z,101124.56
2018-08-28T23:14:46.839Z,101122.66
2018-08-28T23:17:14.952Z,101120.05
2018-08-28T23:19:43.042Z,101123.54
2018-08-28T23:22:11.105Z,101117.32
2018-08-28T23:24:39.231Z,101119.70
2018-08-28T23:27:07.346Z,101114.57
2018-08-28T23:29:35.592Z,101110.38
2018-08-28T23:32:03.688Z,101116.61
2018-08-28T23:34:31.751Z,101109.29
2018-08-28T23:36:59.835Z,101109.89
2018-08-28T23:39:27.899Z,101111.30
2018-08-28T23:41:55.966Z,101114.53
2018-08-28T23:44:24.068Z,101110.23
2018-08-28T23:46:52.139Z,101114.78
2018-08-28T23:49:20.205Z,101104.14
2018-08-28T23:51:48.435Z,101103.55
2018-08-28T23:54:16.538Z,101101.52
2018-08-28T23:56:44.599Z,101099.96
2018-08-28T23:59:12.712Z,101094.33
